createdAt,value
2023-05-15T00:00:00.382Z,7.9
2023-05-15T00:05:00.465Z,9.4
2023-05-15T00:10:00.374Z,12.4
2023-05-15T00:15:00.358Z,9.5
2023-05-15T00:20:00.409Z,8.1
2023-05-15T00:25:00.374Z,6.1
2023-05-15T00:30:00.388Z,8.9
2023-05-15T00:35:00.341Z,10.9
2023-05-15T00:40:00.371Z,7.5
2023-05-15T00:45:00.339Z,8.7
2023-05-15T00:50:00.396Z,8.3
2023-05-15T00:55:00.375Z,9.0
2023-05-15T01:00:00.506Z,7.8
2023-05-15T01:05:00.343Z,8.9
2023-05-15T01:10:00.341Z,10.0
2023-05-15T01:15:00.416Z,11.9
2023-05-15T01:20:00.551Z,9.9
2023-05-15T01:25:00.338Z,7.6
2023-05-15T01:30:00.408Z,9.8
2023-05-15T01:35:00.342Z,10.2
2023-05-15T01:40:00.389Z,8.7
2023-05-15T01:45:00.384Z,11.0
2023-05-15T01:50:00.388Z,8.6
2023-05-15T01:55:00.398Z,9.7
2023-05-15T02:00:00.360Z,12.0
2023-05-15T02:05:00.375Z,9.1
2023-05-15T02:10:00.338Z,9.0
2023-05-15T02:15:00.380Z,12.8
2023-05-15T02:20:00.378Z,9.7
2023-05-15T02:25:00.402Z,9.0
2023-05-15T02:30:00.336Z,11.2
2023-05-15T02:35:00.386Z,10.9
2023-05-15T02:40:00.400Z,8.1
2023-05-15T02:45:00.405Z,10.1
2023-05-15T02:50:00.349Z,10.5
2023-05-15T02:55:00.399Z,10.1
2023-05-15T03:00:00.387Z,8.7
2023-05-15T03:05:00.381Z,9.0
2023-05-15T03:10:00.342Z,13.0
2023-05-15T03:15:00.397Z,8.1
2023-05-15T03:20:00.337Z,9.8
2023-05-15T03:25:00.388Z,13.2
2023-05-15T03:30:00.405Z,12.4
2023-05-15T03:35:00.391Z,8.7
2023-05-15T03:40:00.333Z,10.0
2023-05-15T03:45:00.374Z,21.6
2023-05-15T03:50:00.392Z,10.0
2023-05-15T03:55:00.363Z,10.3
2023-05-15T04:00:00.355Z,11.5
2023-05-15T04:05:00.454Z,12.3
2023-05-15T04:10:00.379Z,12.9
2023-05-15T04:15:00.355Z,13.9
2023-05-15T04:20:00.388Z,13.2
2023-05-15T04:25:00.364Z,10.3
2023-05-15T04:30:00.461Z,10.1
2023-05-15T04:35:00.327Z,11.8
2023-05-15T04:40:00.436Z,10.5
2023-05-15T04:45:00.337Z,9.7
2023-05-15T04:50:00.365Z,17.4
2023-05-15T04:55:00.393Z,11.4
2023-05-15T05:00:00.446Z,12.0
2023-05-15T05:05:00.343Z,15.2
2023-05-15T05:10:00.424Z,13.4
2023-05-15T05:15:00.389Z,13.7
2023-05-15T05:20:00.402Z,12.2
2023-05-15T05:25:00.358Z,11.5
2023-05-15T05:30:00.470Z,10.5
2023-05-15T05:35:00.382Z,15.1
2023-05-15T05:40:00.481Z,14.8
2023-05-15T05:45:00.332Z,13.6
2023-05-15T05:50:00.429Z,11.3
2023-05-15T05:55:00.360Z,10.8
2023-05-15T06:00:00.356Z,12.0
2023-05-15T06:05:00.377Z,11.6
2023-05-15T06:10:00.409Z,10.1
2023-05-15T06:15:00.378Z,13.8
2023-05-15T06:20:00.372Z,9.8
2023-05-15T06:25:00.407Z,10.3
2023-05-15T06:30:00.436Z,9.4
2023-05-15T06:35:00.347Z,9.5
2023-05-15T06:40:00.449Z,11.8
2023-05-15T06:45:00.418Z,11.9
2023-05-15T06:50:00.421Z,12.9
2023-05-15T06:55:00.345Z,7.8
2023-05-15T07:00:00.464Z,8.1
2023-05-15T07:05:00.537Z,19.6
2023-05-15T07:10:00.445Z,11.1
2023-05-15T07:15:00.395Z,9.5
2023-05-15T07:20:00.401Z,8.2
2023-05-15T07:25:00.340Z,9.5
2023-05-15T07:30:00.519Z,5.3
2023-05-15T07:35:00.330Z,5.6
2023-05-15T07:40:00.440Z,5.8
2023-05-15T07:45:00.538Z,5.7
2023-05-15T07:50:00.380Z,5.8
2023-05-15T07:55:00.351Z,8.0
2023-05-15T08:00:00.414Z,3.7
2023-05-15T08:05:00.370Z,6.1
2023-05-15T08:10:00.433Z,4.5
2023-05-15T08:15:00.358Z,3.8
2023-05-15T08:20:00.389Z,4.2
2023-05-15T08:25:00.438Z,4.3
2023-05-15T08:30:00.370Z,8.0
2023-05-15T08:35:00.396Z,5.9
2023-05-15T08:40:00.438Z,4.1
2023-05-15T08:45:00.352Z,6.2
2023-05-15T08:50:00.428Z,4.4
2023-05-15T08:55:00.344Z,3.2
2023-05-15T09:00:00.476Z,5.0
2023-05-15T09:05:00.390Z,3.6
2023-05-15T09:10:00.420Z,3.2
2023-05-15T09:15:00.331Z,3.5
2023-05-15T09:20:00.389Z,4.1
2023-05-15T09:25:00.370Z,4.7
2023-05-15T09:30:00.368Z,6.2
2023-05-15T09:35:00.390Z,4.9
2023-05-15T09:40:00.442Z,4.9
2023-05-15T09:45:00.409Z,4.5
2023-05-15T09:50:00.344Z,7.7
2023-05-15T09:55:00.400Z,6.0
2023-05-15T10:00:00.359Z,4.3
2023-05-15T10:05:00.603Z,4.6
2023-05-15T10:10:00.453Z,4.7
2023-05-15T10:15:00.372Z,4.6
2023-05-15T10:20:00.352Z,7.1
2023-05-15T10:25:00.366Z,4.6
2023-05-15T10:30:00.459Z,3.4
2023-05-15T10:35:00.334Z,3.8
2023-05-15T10:40:00.436Z,4.4
2023-05-15T10:45:00.525Z,3.9
2023-05-15T10:50:00.401Z,4.8
2023-05-15T10:55:00.330Z,3.0
2023-05-15T11:00:00.509Z,5.4
2023-05-15T11:05:00.391Z,4.3
2023-05-15T11:10:00.368Z,5.1
2023-05-15T11:15:00.396Z,7.1
2023-05-15T11:20:00.396Z,5.0
2023-05-15T11:25:00.378Z,5.2
2023-05-15T11:30:00.360Z,4.2
2023-05-15T11:35:00.411Z,5.1
2023-05-15T11:40:00.419Z,3.7
2023-05-15T11:45:00.330Z,5.5
2023-05-15T11:50:00.401Z,5.9
2023-05-15T11:55:00.407Z,3.3
2023-05-15T12:00:00.383Z,5.9
2023-05-15T12:05:00.417Z,7.9
2023-05-15T12:10:00.427Z,6.2
2023-05-15T12:15:00.410Z,4.6
2023-05-15T12:20:00.358Z,8.8
2023-05-15T12:25:00.424Z,13.7
2023-05-15T12:30:00.480Z,10.4
2023-05-15T12:35:00.406Z,8.3
2023-05-15T12:40:00.423Z,6.9
2023-05-15T12:45:00.402Z,14.1
2023-05-15T12:50:00.394Z,8.9
2023-05-15T12:55:00.413Z,15.2
2023-05-15T13:00:00.368Z,12.4
2023-05-15T13:05:00.378Z,9.4
2023-05-15T13:10:00.422Z,9.8
2023-05-15T13:15:00.342Z,14.0
2023-05-15T13:20:00.404Z,11.6
2023-05-15T13:25:00.377Z,9.3
2023-05-15T13:30:00.468Z,14.6
2023-05-15T13:35:00.320Z,20.0
2023-05-15T13:40:00.445Z,14.4
2023-05-15T13:45:00.344Z,13.8
2023-05-15T13:50:00.399Z,15.9
2023-05-15T13:55:00.392Z,16.8
2023-05-15T14:00:00.468Z,11.5
2023-05-15T14:05:00.395Z,18.5
2023-05-15T14:10:00.375Z,14.1
2023-05-15T14:15:00.391Z,15.7
2023-05-15T14:20:00.355Z,24.5
2023-05-15T14:25:00.384Z,22.7
2023-05-15T14:30:00.461Z,18.1
2023-05-15T14:35:00.401Z,13.1
2023-05-15T14:40:00.364Z,15.7
2023-05-15T14:45:00.414Z,15.0
2023-05-15T14:50:00.404Z,14.4
2023-05-15T14:55:09.325Z,13.5
2023-05-15T15:00:00.370Z,21.1
2023-05-15T15:05:00.404Z,16.3
2023-05-15T15:10:00.426Z,18.4
2023-05-15T15:15:00.338Z,19.5
2023-05-15T15:20:00.402Z,16.3
2023-05-15T15:25:01.164Z,17.3
2023-05-15T15:30:00.436Z,19.7
2023-05-15T15:35:00.356Z,17.4
2023-05-15T15:40:00.412Z,15.1
2023-05-15T15:45:00.382Z,15.9
2023-05-15T15:50:00.348Z,11.0
2023-05-15T15:55:00.389Z,8.4
2023-05-15T16:00:00.421Z,7.9
2023-05-15T16:05:00.430Z,15.6
2023-05-15T16:10:11.433Z,12.1
2023-05-15T16:15:13.368Z,10.5
2023-05-15T16:20:00.365Z,10.0
2023-05-15T16:25:00.400Z,9.6
2023-05-15T16:30:00.724Z,9.9
2023-05-15T16:35:00.387Z,12.4
2023-05-15T16:40:00.506Z,14.2
2023-05-15T16:45:00.378Z,6.6
2023-05-15T16:50:00.388Z,7.2
2023-05-15T16:55:00.333Z,10.3
2023-05-15T17:00:00.372Z,9.8
2023-05-15T17:05:00.392Z,10.1
2023-05-15T17:10:00.368Z,10.0
2023-05-15T17:15:00.374Z,7.6
2023-05-15T17:20:02.411Z,7.6
2023-05-15T17:25:00.388Z,9.2
2023-05-15T17:30:00.395Z,11.5
2023-05-15T17:35:00.387Z,7.6
2023-05-15T17:40:00.467Z,8.9
2023-05-15T17:45:00.435Z,6.7
2023-05-15T17:50:00.335Z,7.9
2023-05-15T17:55:00.395Z,5.9
2023-05-15T18:00:00.434Z,4.9
2023-05-15T18:05:00.398Z,8.4
2023-05-15T18:10:00.353Z,7.0
2023-05-15T18:15:00.387Z,7.2
2023-05-15T18:20:00.373Z,9.0
2023-05-15T18:25:00.412Z,10.2
2023-05-15T18:30:00.378Z,6.5
2023-05-15T18:35:00.488Z,5.6
2023-05-15T18:40:00.414Z,12.6
2023-05-15T18:45:00.357Z,6.6
2023-05-15T18:50:00.402Z,7.4
2023-05-15T18:55:00.391Z,10.2
2023-05-15T19:00:00.507Z,8.0
2023-05-15T19:05:00.335Z,7.7
2023-05-15T19:10:00.421Z,6.3
2023-05-15T19:15:00.385Z,7.0
2023-05-15T19:20:00.393Z,8.6
2023-05-15T19:25:00.340Z,9.6
2023-05-15T19:30:00.392Z,6.5
2023-05-15T19:35:00.390Z,7.9
2023-05-15T19:40:00.348Z,8.3
2023-05-15T19:45:00.394Z,6.8
2023-05-15T19:50:00.388Z,8.3
2023-05-15T19:55:00.398Z,8.8
2023-05-15T20:00:00.371Z,9.1
2023-05-15T20:05:00.372Z,11.9
2023-05-15T20:10:00.382Z,11.9
2023-05-15T20:15:00.343Z,8.8
2023-05-15T20:20:00.382Z,10.2
2023-05-15T20:25:00.436Z,9.8
2023-05-15T20:40:00.488Z,11.1
2023-05-15T20:45:00.373Z,7.4
2023-05-15T20:50:00.390Z,9.3
2023-05-15T20:55:00.514Z,8.9
2023-05-15T21:00:00.356Z,7.2
2023-05-15T21:05:00.375Z,9.6
2023-05-15T21:10:00.547Z,8.5
2023-05-15T21:15:00.369Z,9.3
2023-05-15T21:20:00.373Z,10.1
2023-05-15T21:25:00.469Z,11.3
2023-05-15T21:30:00.436Z,9.1
2023-05-15T21:35:00.362Z,10.2
2023-05-15T21:40:00.476Z,6.2
2023-05-15T21:45:00.372Z,6.7
2023-05-15T21:50:00.367Z,7.9
2023-05-15T21:55:00.461Z,8.4
2023-05-15T22:00:00.370Z,5.3
2023-05-15T22:05:00.343Z,5.7
2023-05-15T22:10:00.436Z,5.1
2023-05-15T22:15:00.453Z,5.9
2023-05-15T22:20:00.383Z,6.9
2023-05-15T22:25:02.481Z,6.5
2023-05-15T22:30:00.374Z,7.3
2023-05-15T22:35:00.354Z,6.2
2023-05-15T22:40:00.392Z,5.0
2023-05-15T22:45:00.355Z,3.6
2023-05-15T22:50:00.355Z,4.8
2023-05-15T22:55:00.401Z,5.5
2023-05-15T23:00:00.382Z,6.0
2023-05-15T23:05:00.365Z,4.7
2023-05-15T23:10:00.500Z,3.2
2023-05-15T23:15:00.357Z,3.5
2023-05-15T23:20:00.356Z,2.8
2023-05-15T23:30:00.450Z,2.7
2023-05-15T23:55:00.347Z,5.0
